Piarco FIR Weather

TAPA 061000Z 09008KT 060V120 9999 FEW018CB 27/21 Q1017 NOSIG

TBPB 061000Z 09013KT 9999 SCT018 BKN036 27/23 Q1015 NOSIG

TDPD 052200Z 11008KT 9999 BKN019 28/23 Q1017

TFFF 061030Z AUTO 09005KT 9999 FEW023 27/24 Q1016

TFFR 061030Z AUTO 03004KT 9999 FEW022/// BKN031/// BKN047/// ///CB 25/23 Q1017

TGPY 061000Z 00000KT 9999 -RA SCT018 BKN045 26/25 Q1015 NOSIG

TKPK 061000Z 08010KT 9999 FEW019 26/23 Q1017

TKPN 052100Z 10014KT 9999 FEW020 SCT046 30/23 Q1017

TLPC 052200Z 07007KT 7000N VCSH BKN020 26/24 Q1016 TEMPO SHRA

TLPL 061000Z 09015KT 9999 SCT024 27/24 Q1016 NOSIG

TTCP 061000Z 09004KT 9999 FEW015 26/24 Q1014 NOSIG

TTPP 061000Z 00000KT 9000 VCSH FEW014 24/23 Q1015 NOSIG RMK VCSH NE E SW

TVSV 132043Z 12005G18KT 4000 SHRA BKN014 27/23 Q1010